sensor_id;sensor_type;location;lat;lon;timestamp;P1;durP1;ratioP1;P2;durP2;ratioP2
71896;SDS011;59767;51.344;12.362;2023-05-16T00:02:55;12.60;;;6.63;;
71896;SDS011;59767;51.344;12.362;2023-05-16T00:05:59;9.35;;;6.03;;
71896;SDS011;59767;51.344;12.362;2023-05-16T00:09:05;13.18;;;7.00;;
71896;SDS011;59767;51.344;12.362;2023-05-16T00:12:09;11.98;;;6.40;;
71896;SDS011;59767;51.344;12.362;2023-05-16T00:15:14;12.50;;;6.75;;
71896;SDS011;59767;51.344;12.362;2023-05-16T00:18:18;12.90;;;6.80;;
71896;SDS011;59767;51.344;12.362;2023-05-16T00:21:22;12.40;;;6.60;;
71896;SDS011;59767;51.344;12.362;2023-05-16T00:24:27;11.90;;;6.30;;
71896;SDS011;59767;51.344;12.362;2023-05-16T00:27:35;13.25;;;6.20;;
71896;SDS011;59767;51.344;12.362;2023-05-16T00:30:39;12.95;;;7.18;;
71896;SDS011;59767;51.344;12.362;2023-05-16T00:33:44;12.15;;;7.22;;
71896;SDS011;59767;51.344;12.362;2023-05-16T00:36:48;13.23;;;7.25;;
71896;SDS011;59767;51.344;12.362;2023-05-16T00:39:53;17.23;;;7.40;;
71896;SDS011;59767;51.344;12.362;2023-05-16T00:42:57;11.30;;;6.60;;
71896;SDS011;59767;51.344;12.362;2023-05-16T00:46:01;12.95;;;6.70;;
71896;SDS011;59767;51.344;12.362;2023-05-16T00:49:06;11.55;;;6.68;;
71896;SDS011;59767;51.344;12.362;2023-05-16T00:52:11;13.65;;;6.90;;
71896;SDS011;59767;51.344;12.362;2023-05-16T00:55:15;12.27;;;7.05;;
71896;SDS011;59767;51.344;12.362;2023-05-16T00:58:19;18.25;;;7.35;;
71896;SDS011;59767;51.344;12.362;2023-05-16T01:01:25;16.48;;;7.53;;
71896;SDS011;59767;51.344;12.362;2023-05-16T01:04:31;11.85;;;7.28;;
71896;SDS011;59767;51.344;12.362;2023-05-16T01:07:35;12.93;;;7.60;;
71896;SDS011;59767;51.344;12.362;2023-05-16T01:10:43;16.05;;;7.50;;
71896;SDS011;59767;51.344;12.362;2023-05-16T01:17:22;13.45;;;6.85;;
71896;SDS011;59767;51.344;12.362;2023-05-16T01:20:38;16.20;;;7.45;;
71896;SDS011;59767;51.344;12.362;2023-05-16T01:23:51;15.07;;;7.70;;
71896;SDS011;59767;51.344;12.362;2023-05-16T01:27:06;13.07;;;7.35;;
71896;SDS011;59767;51.344;12.362;2023-05-16T01:30:17;11.45;;;6.72;;
71896;SDS011;59767;51.344;12.362;2023-05-16T01:33:22;14.13;;;7.20;;
71896;SDS011;59767;51.344;12.362;2023-05-16T01:39:55;13.75;;;7.60;;
71896;SDS011;59767;51.344;12.362;2023-05-16T01:43:10;13.02;;;7.10;;
71896;SDS011;59767;51.344;12.362;2023-05-16T01:46:20;12.90;;;7.50;;
71896;SDS011;59767;51.344;12.362;2023-05-16T01:55:50;13.98;;;6.82;;
71896;SDS011;59767;51.344;12.362;2023-05-16T01:58:55;13.43;;;7.07;;
71896;SDS011;59767;51.344;12.362;2023-05-16T02:02:01;11.23;;;6.85;;
71896;SDS011;59767;51.344;12.362;2023-05-16T02:05:06;14.48;;;7.82;;
71896;SDS011;59767;51.344;12.362;2023-05-16T02:08:10;21.98;;;7.93;;
71896;SDS011;59767;51.344;12.362;2023-05-16T02:11:14;13.40;;;7.82;;
71896;SDS011;59767;51.344;12.362;2023-05-16T02:14:18;13.43;;;7.82;;
71896;SDS011;59767;51.344;12.362;2023-05-16T02:17:22;18.67;;;9.25;;
71896;SDS011;59767;51.344;12.362;2023-05-16T02:20:26;17.15;;;9.55;;
71896;SDS011;59767;51.344;12.362;2023-05-16T02:23:30;17.50;;;10.23;;
71896;SDS011;59767;51.344;12.362;2023-05-16T02:26:34;18.05;;;10.60;;
71896;SDS011;59767;51.344;12.362;2023-05-16T02:29:38;19.48;;;11.48;;
71896;SDS011;59767;51.344;12.362;2023-05-16T02:32:43;23.33;;;13.90;;
71896;SDS011;59767;51.344;12.362;2023-05-16T02:35:47;21.13;;;14.98;;
71896;SDS011;59767;51.344;12.362;2023-05-16T02:38:52;27.42;;;15.38;;
71896;SDS011;59767;51.344;12.362;2023-05-16T02:41:56;22.33;;;16.40;;
71896;SDS011;59767;51.344;12.362;2023-05-16T02:45:00;25.27;;;17.65;;
71896;SDS011;59767;51.344;12.362;2023-05-16T02:48:05;26.08;;;18.60;;
71896;SDS011;59767;51.344;12.362;2023-05-16T02:51:10;30.92;;;19.90;;
71896;SDS011;59767;51.344;12.362;2023-05-16T02:54:14;30.95;;;20.23;;
71896;SDS011;59767;51.344;12.362;2023-05-16T02:57:18;28.00;;;20.92;;
71896;SDS011;59767;51.344;12.362;2023-05-16T03:00:22;34.15;;;22.75;;
71896;SDS011;59767;51.344;12.362;2023-05-16T03:03:27;33.80;;;22.95;;
71896;SDS011;59767;51.344;12.362;2023-05-16T03:06:32;33.60;;;23.05;;
71896;SDS011;59767;51.344;12.362;2023-05-16T03:09:36;36.58;;;24.52;;
71896;SDS011;59767;51.344;12.362;2023-05-16T03:12:40;33.80;;;23.52;;
71896;SDS011;59767;51.344;12.362;2023-05-16T03:15:44;31.50;;;23.83;;
71896;SDS011;59767;51.344;12.362;2023-05-16T03:18:48;30.88;;;23.85;;
71896;SDS011;59767;51.344;12.362;2023-05-16T03:21:53;34.00;;;24.63;;
71896;SDS011;59767;51.344;12.362;2023-05-16T03:24:57;33.72;;;24.70;;
71896;SDS011;59767;51.344;12.362;2023-05-16T03:28:02;32.85;;;23.85;;
71896;SDS011;59767;51.344;12.362;2023-05-16T03:31:06;33.03;;;24.23;;
71896;SDS011;59767;51.344;12.362;2023-05-16T03:34:10;34.63;;;24.58;;
71896;SDS011;59767;51.344;12.362;2023-05-16T03:37:14;35.63;;;24.85;;
71896;SDS011;59767;51.344;12.362;2023-05-16T03:40:19;34.70;;;25.98;;
71896;SDS011;59767;51.344;12.362;2023-05-16T03:43:23;35.58;;;25.50;;
71896;SDS011;59767;51.344;12.362;2023-05-16T03:46:27;31.65;;;23.50;;
71896;SDS011;59767;51.344;12.362;2023-05-16T03:49:32;30.80;;;22.88;;
71896;SDS011;59767;51.344;12.362;2023-05-16T03:52:36;31.77;;;22.55;;
71896;SDS011;59767;51.344;12.362;2023-05-16T03:55:40;28.02;;;21.10;;
71896;SDS011;59767;51.344;12.362;2023-05-16T03:58:44;27.42;;;21.05;;
71896;SDS011;59767;51.344;12.362;2023-05-16T04:01:48;28.65;;;20.55;;
71896;SDS011;59767;51.344;12.362;2023-05-16T04:04:53;28.77;;;19.67;;
71896;SDS011;59767;51.344;12.362;2023-05-16T04:07:58;24.65;;;18.95;;
71896;SDS011;59767;51.344;12.362;2023-05-16T04:11:02;28.05;;;19.30;;
71896;SDS011;59767;51.344;12.362;2023-05-16T04:14:06;25.38;;;19.00;;
71896;SDS011;59767;51.344;12.362;2023-05-16T04:17:10;27.33;;;19.15;;
71896;SDS011;59767;51.344;12.362;2023-05-16T04:20:15;24.67;;;17.55;;
71896;SDS011;59767;51.344;12.362;2023-05-16T04:23:20;24.25;;;17.98;;
71896;SDS011;59767;51.344;12.362;2023-05-16T04:26:24;27.83;;;19.40;;
71896;SDS011;59767;51.344;12.362;2023-05-16T04:29:28;25.55;;;18.65;;
71896;SDS011;59767;51.344;12.362;2023-05-16T04:32:32;28.45;;;18.50;;
71896;SDS011;59767;51.344;12.362;2023-05-16T04:35:38;25.48;;;18.27;;
71896;SDS011;59767;51.344;12.362;2023-05-16T04:38:42;25.48;;;19.25;;
71896;SDS011;59767;51.344;12.362;2023-05-16T04:41:46;26.15;;;19.02;;
71896;SDS011;59767;51.344;12.362;2023-05-16T04:44:50;29.52;;;19.33;;
71896;SDS011;59767;51.344;12.362;2023-05-16T04:47:55;25.05;;;18.15;;
71896;SDS011;59767;51.344;12.362;2023-05-16T04:51:00;26.92;;;19.25;;
71896;SDS011;59767;51.344;12.362;2023-05-16T04:54:04;28.88;;;19.10;;
71896;SDS011;59767;51.344;12.362;2023-05-16T04:57:08;29.05;;;18.80;;
71896;SDS011;59767;51.344;12.362;2023-05-16T05:00:12;27.23;;;18.27;;
71896;SDS011;59767;51.344;12.362;2023-05-16T05:03:17;27.02;;;17.75;;
71896;SDS011;59767;51.344;12.362;2023-05-16T05:06:21;25.45;;;15.45;;
71896;SDS011;59767;51.344;12.362;2023-05-16T05:09:25;22.10;;;13.93;;
71896;SDS011;59767;51.344;12.362;2023-05-16T05:12:29;19.15;;;12.82;;
71896;SDS011;59767;51.344;12.362;2023-05-16T05:15:33;18.67;;;12.93;;
71896;SDS011;59767;51.344;12.362;2023-05-16T05:18:37;17.80;;;11.45;;
71896;SDS011;59767;51.344;12.362;2023-05-16T05:21:42;18.05;;;10.52;;
71896;SDS011;59767;51.344;12.362;2023-05-16T05:24:46;21.83;;;10.82;;
71896;SDS011;59767;51.344;12.362;2023-05-16T05:27:50;15.80;;;9.63;;
71896;SDS011;59767;51.344;12.362;2023-05-16T05:30:54;18.23;;;9.65;;
71896;SDS011;59767;51.344;12.362;2023-05-16T05:33:58;21.98;;;9.63;;
71896;SDS011;59767;51.344;12.362;2023-05-16T05:37:03;15.60;;;8.80;;
71896;SDS011;59767;51.344;12.362;2023-05-16T05:40:07;16.98;;;8.18;;
71896;SDS011;59767;51.344;12.362;2023-05-16T05:43:11;17.80;;;8.25;;
71896;SDS011;59767;51.344;12.362;2023-05-16T05:46:15;21.95;;;10.50;;
71896;SDS011;59767;51.344;12.362;2023-05-16T05:49:20;17.15;;;6.13;;
71896;SDS011;59767;51.344;12.362;2023-05-16T05:52:24;10.23;;;5.78;;
71896;SDS011;59767;51.344;12.362;2023-05-16T05:55:30;13.23;;;5.38;;
71896;SDS011;59767;51.344;12.362;2023-05-16T05:58:34;8.23;;;4.13;;
71896;SDS011;59767;51.344;12.362;2023-05-16T06:01:39;13.10;;;4.07;;
71896;SDS011;59767;51.344;12.362;2023-05-16T06:04:43;11.82;;;4.50;;
71896;SDS011;59767;51.344;12.362;2023-05-16T06:07:48;9.55;;;4.07;;
71896;SDS011;59767;51.344;12.362;2023-05-16T06:10:52;9.43;;;4.10;;
71896;SDS011;59767;51.344;12.362;2023-05-16T06:13:57;9.80;;;3.97;;
71896;SDS011;59767;51.344;12.362;2023-05-16T06:17:01;8.63;;;3.88;;
71896;SDS011;59767;51.344;12.362;2023-05-16T06:20:05;9.23;;;3.70;;
71896;SDS011;59767;51.344;12.362;2023-05-16T06:23:10;8.27;;;3.55;;
71896;SDS011;59767;51.344;12.362;2023-05-16T06:26:14;9.27;;;3.50;;
71896;SDS011;59767;51.344;12.362;2023-05-16T06:29:18;9.68;;;3.35;;
71896;SDS011;59767;51.344;12.362;2023-05-16T06:32:23;7.57;;;3.25;;
71896;SDS011;59767;51.344;12.362;2023-05-16T06:35:27;8.57;;;3.50;;
71896;SDS011;59767;51.344;12.362;2023-05-16T06:38:31;13.77;;;3.67;;
71896;SDS011;59767;51.344;12.362;2023-05-16T06:41:36;9.27;;;3.10;;
71896;SDS011;59767;51.344;12.362;2023-05-16T06:44:40;8.43;;;3.30;;
71896;SDS011;59767;51.344;12.362;2023-05-16T06:47:44;10.93;;;3.47;;
71896;SDS011;59767;51.344;12.362;2023-05-16T06:50:48;10.00;;;3.10;;
71896;SDS011;59767;51.344;12.362;2023-05-16T06:53:56;8.85;;;3.30;;
71896;SDS011;59767;51.344;12.362;2023-05-16T06:57:00;11.50;;;3.53;;
71896;SDS011;59767;51.344;12.362;2023-05-16T07:00:06;9.07;;;3.13;;
71896;SDS011;59767;51.344;12.362;2023-05-16T07:03:11;10.02;;;3.40;;
71896;SDS011;59767;51.344;12.362;2023-05-16T07:06:16;8.98;;;3.35;;
71896;SDS011;59767;51.344;12.362;2023-05-16T07:09:20;10.52;;;3.75;;
71896;SDS011;59767;51.344;12.362;2023-05-16T07:12:24;13.50;;;4.05;;
71896;SDS011;59767;51.344;12.362;2023-05-16T07:15:29;11.13;;;3.53;;
71896;SDS011;59767;51.344;12.362;2023-05-16T07:18:34;11.75;;;3.78;;
71896;SDS011;59767;51.344;12.362;2023-05-16T07:21:38;14.38;;;4.15;;
71896;SDS011;59767;51.344;12.362;2023-05-16T07:24:43;13.30;;;3.85;;
71896;SDS011;59767;51.344;12.362;2023-05-16T07:27:47;8.63;;;3.35;;
71896;SDS011;59767;51.344;12.362;2023-05-16T07:30:51;13.50;;;3.65;;
71896;SDS011;59767;51.344;12.362;2023-05-16T07:33:55;12.05;;;3.70;;
71896;SDS011;59767;51.344;12.362;2023-05-16T07:36:59;9.30;;;3.63;;
71896;SDS011;59767;51.344;12.362;2023-05-16T07:40:03;12.30;;;3.70;;
71896;SDS011;59767;51.344;12.362;2023-05-16T07:43:08;10.18;;;3.40;;
71896;SDS011;59767;51.344;12.362;2023-05-16T07:46:12;11.50;;;3.25;;
71896;SDS011;59767;51.344;12.362;2023-05-16T07:49:17;9.23;;;3.20;;
71896;SDS011;59767;51.344;12.362;2023-05-16T07:52:21;10.02;;;3.42;;
71896;SDS011;59767;51.344;12.362;2023-05-16T07:55:25;8.18;;;3.10;;
71896;SDS011;59767;51.344;12.362;2023-05-16T07:58:30;10.00;;;2.88;;
71896;SDS011;59767;51.344;12.362;2023-05-16T08:01:34;8.07;;;2.80;;
71896;SDS011;59767;51.344;12.362;2023-05-16T08:04:38;11.23;;;3.00;;
71896;SDS011;59767;51.344;12.362;2023-05-16T08:07:42;8.20;;;2.65;;
71896;SDS011;59767;51.344;12.362;2023-05-16T08:10:46;8.57;;;2.53;;
71896;SDS011;59767;51.344;12.362;2023-05-16T08:13:51;9.90;;;2.53;;
71896;SDS011;59767;51.344;12.362;2023-05-16T08:16:55;8.55;;;2.45;;
71896;SDS011;59767;51.344;12.362;2023-05-16T08:19:59;8.88;;;2.65;;
71896;SDS011;59767;51.344;12.362;2023-05-16T08:23:04;7.45;;;2.20;;
71896;SDS011;59767;51.344;12.362;2023-05-16T08:26:08;9.23;;;2.50;;
71896;SDS011;59767;51.344;12.362;2023-05-16T08:29:13;7.15;;;2.67;;
71896;SDS011;59767;51.344;12.362;2023-05-16T08:32:17;11.07;;;2.15;;
71896;SDS011;59767;51.344;12.362;2023-05-16T08:35:21;7.75;;;2.22;;
71896;SDS011;59767;51.344;12.362;2023-05-16T08:38:26;12.02;;;2.63;;
71896;SDS011;59767;51.344;12.362;2023-05-16T08:41:30;19.10;;;3.08;;
71896;SDS011;59767;51.344;12.362;2023-05-16T08:44:34;7.97;;;2.08;;
71896;SDS011;59767;51.344;12.362;2023-05-16T08:47:39;11.05;;;2.25;;
71896;SDS011;59767;51.344;12.362;2023-05-16T08:50:45;8.32;;;1.83;;
71896;SDS011;59767;51.344;12.362;2023-05-16T08:53:51;5.60;;;1.90;;
71896;SDS011;59767;51.344;12.362;2023-05-16T08:56:58;11.85;;;2.00;;
71896;SDS011;59767;51.344;12.362;2023-05-16T09:00:05;6.80;;;1.80;;
71896;SDS011;59767;51.344;12.362;2023-05-16T09:03:15;10.45;;;1.67;;
71896;SDS011;59767;51.344;12.362;2023-05-16T09:06:20;7.32;;;1.90;;
71896;SDS011;59767;51.344;12.362;2023-05-16T09:09:24;7.60;;;2.00;;
71896;SDS011;59767;51.344;12.362;2023-05-16T09:12:28;5.35;;;1.58;;
71896;SDS011;59767;51.344;12.362;2023-05-16T09:15:32;4.57;;;1.55;;
71896;SDS011;59767;51.344;12.362;2023-05-16T09:18:38;13.25;;;1.70;;
71896;SDS011;59767;51.344;12.362;2023-05-16T09:21:45;4.40;;;1.67;;
71896;SDS011;59767;51.344;12.362;2023-05-16T09:24:50;8.43;;;1.60;;
71896;SDS011;59767;51.344;12.362;2023-05-16T09:27:54;6.40;;;1.70;;
71896;SDS011;59767;51.344;12.362;2023-05-16T09:31:00;10.45;;;1.60;;
71896;SDS011;59767;51.344;12.362;2023-05-16T09:34:08;7.20;;;1.50;;
71896;SDS011;59767;51.344;12.362;2023-05-16T09:37:14;7.68;;;1.50;;
71896;SDS011;59767;51.344;12.362;2023-05-16T09:40:19;16.27;;;2.03;;
71896;SDS011;59767;51.344;12.362;2023-05-16T09:43:25;16.67;;;2.25;;
71896;SDS011;59767;51.344;12.362;2023-05-16T09:46:29;9.43;;;1.38;;
71896;SDS011;59767;51.344;12.362;2023-05-16T09:49:35;8.88;;;1.38;;
71896;SDS011;59767;51.344;12.362;2023-05-16T09:52:40;12.13;;;1.60;;
71896;SDS011;59767;51.344;12.362;2023-05-16T09:55:45;6.38;;;1.40;;
71896;SDS011;59767;51.344;12.362;2023-05-16T09:58:50;5.45;;;1.42;;
71896;SDS011;59767;51.344;12.362;2023-05-16T10:01:56;13.23;;;1.67;;
71896;SDS011;59767;51.344;12.362;2023-05-16T10:05:04;11.40;;;1.40;;
71896;SDS011;59767;51.344;12.362;2023-05-16T10:08:09;16.98;;;2.45;;
71896;SDS011;59767;51.344;12.362;2023-05-16T10:11:14;10.90;;;2.10;;
71896;SDS011;59767;51.344;12.362;2023-05-16T10:14:20;9.82;;;1.90;;
71896;SDS011;59767;51.344;12.362;2023-05-16T10:17:25;12.85;;;1.50;;
71896;SDS011;59767;51.344;12.362;2023-05-16T10:20:30;9.02;;;1.80;;
71896;SDS011;59767;51.344;12.362;2023-05-16T10:23:35;16.65;;;2.05;;
71896;SDS011;59767;51.344;12.362;2023-05-16T10:26:43;8.02;;;1.63;;
71896;SDS011;59767;51.344;12.362;2023-05-16T10:29:48;7.40;;;1.50;;
71896;SDS011;59767;51.344;12.362;2023-05-16T10:32:58;10.30;;;2.10;;
71896;SDS011;59767;51.344;12.362;2023-05-16T10:36:05;6.20;;;1.55;;
71896;SDS011;59767;51.344;12.362;2023-05-16T10:39:11;12.57;;;1.80;;
71896;SDS011;59767;51.344;12.362;2023-05-16T10:42:16;7.75;;;1.70;;
71896;SDS011;59767;51.344;12.362;2023-05-16T10:45:21;8.52;;;1.98;;
71896;SDS011;59767;51.344;12.362;2023-05-16T10:48:29;8.20;;;2.13;;
71896;SDS011;59767;51.344;12.362;2023-05-16T10:51:35;9.73;;;1.80;;
71896;SDS011;59767;51.344;12.362;2023-05-16T10:54:42;10.90;;;2.00;;
71896;SDS011;59767;51.344;12.362;2023-05-16T10:57:47;10.55;;;2.00;;
71896;SDS011;59767;51.344;12.362;2023-05-16T11:04:18;12.43;;;2.22;;
71896;SDS011;59767;51.344;12.362;2023-05-16T11:07:23;13.23;;;2.30;;
71896;SDS011;59767;51.344;12.362;2023-05-16T11:10:29;18.02;;;2.65;;
71896;SDS011;59767;51.344;12.362;2023-05-16T11:13:33;15.25;;;2.25;;
71896;SDS011;59767;51.344;12.362;2023-05-16T11:16:38;14.82;;;2.17;;
71896;SDS011;59767;51.344;12.362;2023-05-16T11:22:49;11.95;;;2.33;;
71896;SDS011;59767;51.344;12.362;2023-05-16T11:25:55;14.10;;;2.10;;
71896;SDS011;59767;51.344;12.362;2023-05-16T11:29:01;12.95;;;2.15;;
71896;SDS011;59767;51.344;12.362;2023-05-16T11:32:06;12.05;;;2.35;;
71896;SDS011;59767;51.344;12.362;2023-05-16T11:35:14;16.13;;;2.45;;
71896;SDS011;59767;51.344;12.362;2023-05-16T11:38:19;12.55;;;2.05;;
71896;SDS011;59767;51.344;12.362;2023-05-16T11:41:23;16.77;;;2.92;;
71896;SDS011;59767;51.344;12.362;2023-05-16T11:44:27;19.80;;;2.60;;
71896;SDS011;59767;51.344;12.362;2023-05-16T11:47:31;17.48;;;2.83;;
71896;SDS011;59767;51.344;12.362;2023-05-16T11:50:36;17.35;;;3.28;;
71896;SDS011;59767;51.344;12.362;2023-05-16T11:53:41;17.30;;;2.78;;
71896;SDS011;59767;51.344;12.362;2023-05-16T11:56:45;14.93;;;2.22;;
71896;SDS011;59767;51.344;12.362;2023-05-16T11:59:50;10.65;;;2.25;;
71896;SDS011;59767;51.344;12.362;2023-05-16T12:02:59;14.23;;;2.25;;
71896;SDS011;59767;51.344;12.362;2023-05-16T12:06:06;17.05;;;2.53;;
71896;SDS011;59767;51.344;12.362;2023-05-16T12:09:11;16.35;;;2.47;;
71896;SDS011;59767;51.344;12.362;2023-05-16T12:12:22;9.68;;;1.88;;
71896;SDS011;59767;51.344;12.362;2023-05-16T12:15:26;13.18;;;2.40;;
71896;SDS011;59767;51.344;12.362;2023-05-16T12:18:31;18.67;;;2.80;;
71896;SDS011;59767;51.344;12.362;2023-05-16T12:21:36;16.00;;;2.92;;
71896;SDS011;59767;51.344;12.362;2023-05-16T12:24:40;15.20;;;2.53;;
71896;SDS011;59767;51.344;12.362;2023-05-16T12:27:45;18.48;;;2.88;;
71896;SDS011;59767;51.344;12.362;2023-05-16T12:30:49;16.98;;;2.30;;
71896;SDS011;59767;51.344;12.362;2023-05-16T12:33:53;15.80;;;2.40;;
71896;SDS011;59767;51.344;12.362;2023-05-16T12:36:58;19.25;;;2.70;;
71896;SDS011;59767;51.344;12.362;2023-05-16T12:40:03;17.95;;;2.38;;
71896;SDS011;59767;51.344;12.362;2023-05-16T12:43:27;15.52;;;2.47;;
71896;SDS011;59767;51.344;12.362;2023-05-16T12:46:32;14.05;;;2.25;;
71896;SDS011;59767;51.344;12.362;2023-05-16T12:49:43;11.95;;;1.83;;
71896;SDS011;59767;51.344;12.362;2023-05-16T12:52:49;14.82;;;2.08;;
71896;SDS011;59767;51.344;12.362;2023-05-16T12:55:54;16.48;;;2.28;;
71896;SDS011;59767;51.344;12.362;2023-05-16T12:58:57;21.90;;;4.90;;
71896;SDS011;59767;51.344;12.362;2023-05-16T13:02:02;15.57;;;2.53;;
71896;SDS011;59767;51.344;12.362;2023-05-16T13:05:06;13.63;;;2.10;;
71896;SDS011;59767;51.344;12.362;2023-05-16T13:08:11;13.23;;;2.45;;
71896;SDS011;59767;51.344;12.362;2023-05-16T13:11:15;11.68;;;2.00;;
71896;SDS011;59767;51.344;12.362;2023-05-16T13:14:19;15.55;;;2.10;;
71896;SDS011;59767;51.344;12.362;2023-05-16T13:17:23;16.90;;;3.42;;
71896;SDS011;59767;51.344;12.362;2023-05-16T13:20:28;15.82;;;2.10;;
71896;SDS011;59767;51.344;12.362;2023-05-16T13:23:32;13.27;;;2.17;;
71896;SDS011;59767;51.344;12.362;2023-05-16T13:26:36;12.80;;;1.90;;
71896;SDS011;59767;51.344;12.362;2023-05-16T13:29:41;13.07;;;2.00;;
71896;SDS011;59767;51.344;12.362;2023-05-16T13:32:45;13.48;;;1.90;;
71896;SDS011;59767;51.344;12.362;2023-05-16T13:35:50;15.95;;;2.00;;
71896;SDS011;59767;51.344;12.362;2023-05-16T13:38:54;14.80;;;2.67;;
71896;SDS011;59767;51.344;12.362;2023-05-16T13:41:59;12.93;;;2.00;;
71896;SDS011;59767;51.344;12.362;2023-05-16T13:45:03;14.23;;;2.28;;
71896;SDS011;59767;51.344;12.362;2023-05-16T13:48:08;12.32;;;2.00;;
71896;SDS011;59767;51.344;12.362;2023-05-16T13:51:12;10.93;;;2.08;;
71896;SDS011;59767;51.344;12.362;2023-05-16T13:54:17;14.25;;;2.30;;
71896;SDS011;59767;51.344;12.362;2023-05-16T13:57:22;15.95;;;2.30;;
71896;SDS011;59767;51.344;12.362;2023-05-16T14:00:27;15.20;;;2.13;;
71896;SDS011;59767;51.344;12.362;2023-05-16T14:03:48;16.17;;;1.90;;
71896;SDS011;59767;51.344;12.362;2023-05-16T14:06:52;15.18;;;2.00;;
71896;SDS011;59767;51.344;12.362;2023-05-16T14:09:57;19.70;;;2.20;;
71896;SDS011;59767;51.344;12.362;2023-05-16T14:13:01;11.88;;;1.88;;
71896;SDS011;59767;51.344;12.362;2023-05-16T14:16:05;12.13;;;1.60;;
71896;SDS011;59767;51.344;12.362;2023-05-16T14:19:10;13.13;;;1.80;;
71896;SDS011;59767;51.344;12.362;2023-05-16T14:22:15;13.25;;;1.60;;
71896;SDS011;59767;51.344;12.362;2023-05-16T14:25:21;12.30;;;1.80;;
71896;SDS011;59767;51.344;12.362;2023-05-16T14:28:25;9.32;;;1.90;;
71896;SDS011;59767;51.344;12.362;2023-05-16T14:31:30;16.27;;;1.98;;
71896;SDS011;59767;51.344;12.362;2023-05-16T14:34:34;9.45;;;1.77;;
71896;SDS011;59767;51.344;12.362;2023-05-16T14:37:38;10.23;;;1.70;;
71896;SDS011;59767;51.344;12.362;2023-05-16T14:40:42;11.00;;;1.90;;
71896;SDS011;59767;51.344;12.362;2023-05-16T14:43:47;11.50;;;1.70;;
71896;SDS011;59767;51.344;12.362;2023-05-16T14:46:51;12.15;;;1.88;;
71896;SDS011;59767;51.344;12.362;2023-05-16T14:49:55;15.73;;;1.80;;
71896;SDS011;59767;51.344;12.362;2023-05-16T14:53:00;12.57;;;1.85;;
71896;SDS011;59767;51.344;12.362;2023-05-16T14:56:04;10.68;;;1.77;;
71896;SDS011;59767;51.344;12.362;2023-05-16T14:59:08;8.88;;;1.70;;
71896;SDS011;59767;51.344;12.362;2023-05-16T15:02:13;13.60;;;1.70;;
71896;SDS011;59767;51.344;12.362;2023-05-16T15:05:17;9.32;;;1.88;;
71896;SDS011;59767;51.344;12.362;2023-05-16T15:08:22;5.57;;;1.50;;
71896;SDS011;59767;51.344;12.362;2023-05-16T15:11:27;12.65;;;1.70;;
71896;SDS011;59767;51.344;12.362;2023-05-16T15:14:31;12.80;;;1.45;;
71896;SDS011;59767;51.344;12.362;2023-05-16T15:17:36;8.27;;;1.60;;
71896;SDS011;59767;51.344;12.362;2023-05-16T15:20:41;7.18;;;1.30;;
71896;SDS011;59767;51.344;12.362;2023-05-16T15:23:46;10.25;;;1.52;;
71896;SDS011;59767;51.344;12.362;2023-05-16T15:26:50;9.23;;;1.52;;
71896;SDS011;59767;51.344;12.362;2023-05-16T15:29:54;9.52;;;1.50;;
71896;SDS011;59767;51.344;12.362;2023-05-16T15:32:58;10.02;;;1.60;;
71896;SDS011;59767;51.344;12.362;2023-05-16T15:36:02;9.82;;;1.52;;
71896;SDS011;59767;51.344;12.362;2023-05-16T15:39:06;7.70;;;1.83;;
71896;SDS011;59767;51.344;12.362;2023-05-16T15:42:10;8.00;;;1.40;;
71896;SDS011;59767;51.344;12.362;2023-05-16T15:45:15;7.57;;;1.50;;
71896;SDS011;59767;51.344;12.362;2023-05-16T15:48:21;10.98;;;1.40;;
71896;SDS011;59767;51.344;12.362;2023-05-16T15:51:25;8.20;;;1.23;;
71896;SDS011;59767;51.344;12.362;2023-05-16T15:54:29;8.98;;;1.55;;
71896;SDS011;59767;51.344;12.362;2023-05-16T15:57:34;7.35;;;1.60;;
71896;SDS011;59767;51.344;12.362;2023-05-16T16:00:38;11.70;;;3.40;;
71896;SDS011;59767;51.344;12.362;2023-05-16T16:03:43;10.85;;;1.80;;
71896;SDS011;59767;51.344;12.362;2023-05-16T16:06:48;7.82;;;1.58;;
71896;SDS011;59767;51.344;12.362;2023-05-16T16:09:52;8.85;;;1.30;;
71896;SDS011;59767;51.344;12.362;2023-05-16T16:13:00;6.82;;;1.35;;
71896;SDS011;59767;51.344;12.362;2023-05-16T16:16:05;9.48;;;1.40;;
71896;SDS011;59767;51.344;12.362;2023-05-16T16:19:10;7.43;;;1.27;;
71896;SDS011;59767;51.344;12.362;2023-05-16T16:22:14;8.27;;;1.67;;
71896;SDS011;59767;51.344;12.362;2023-05-16T16:25:19;11.07;;;4.38;;
71896;SDS011;59767;51.344;12.362;2023-05-16T16:28:24;10.55;;;1.80;;
71896;SDS011;59767;51.344;12.362;2023-05-16T16:31:30;8.15;;;1.60;;
71896;SDS011;59767;51.344;12.362;2023-05-16T16:34:35;9.32;;;1.35;;
71896;SDS011;59767;51.344;12.362;2023-05-16T16:37:39;8.57;;;1.60;;
71896;SDS011;59767;51.344;12.362;2023-05-16T16:40:49;7.43;;;1.40;;
71896;SDS011;59767;51.344;12.362;2023-05-16T16:43:53;7.57;;;1.42;;
71896;SDS011;59767;51.344;12.362;2023-05-16T16:46:57;8.95;;;1.90;;
71896;SDS011;59767;51.344;12.362;2023-05-16T16:50:02;6.60;;;1.20;;
71896;SDS011;59767;51.344;12.362;2023-05-16T16:53:06;10.23;;;1.30;;
71896;SDS011;59767;51.344;12.362;2023-05-16T16:56:10;8.07;;;1.30;;
71896;SDS011;59767;51.344;12.362;2023-05-16T16:59:15;7.45;;;1.23;;
71896;SDS011;59767;51.344;12.362;2023-05-16T17:02:19;8.38;;;1.38;;
71896;SDS011;59767;51.344;12.362;2023-05-16T17:05:23;7.10;;;1.40;;
71896;SDS011;59767;51.344;12.362;2023-05-16T17:08:27;7.72;;;1.30;;
71896;SDS011;59767;51.344;12.362;2023-05-16T17:11:31;10.27;;;1.90;;
71896;SDS011;59767;51.344;12.362;2023-05-16T17:14:39;8.02;;;1.40;;
71896;SDS011;59767;51.344;12.362;2023-05-16T17:17:44;12.57;;;1.40;;
71896;SDS011;59767;51.344;12.362;2023-05-16T17:20:49;7.72;;;1.25;;
71896;SDS011;59767;51.344;12.362;2023-05-16T17:23:55;6.95;;;1.10;;
71896;SDS011;59767;51.344;12.362;2023-05-16T17:27:00;8.45;;;1.52;;
71896;SDS011;59767;51.344;12.362;2023-05-16T17:30:06;10.82;;;1.73;;
71896;SDS011;59767;51.344;12.362;2023-05-16T17:33:12;6.32;;;1.20;;
71896;SDS011;59767;51.344;12.362;2023-05-16T17:36:17;6.10;;;1.25;;
71896;SDS011;59767;51.344;12.362;2023-05-16T17:39:21;6.47;;;1.23;;
71896;SDS011;59767;51.344;12.362;2023-05-16T17:42:25;8.57;;;1.40;;
71896;SDS011;59767;51.344;12.362;2023-05-16T17:45:30;6.97;;;1.45;;
71896;SDS011;59767;51.344;12.362;2023-05-16T17:48:34;5.68;;;1.30;;
71896;SDS011;59767;51.344;12.362;2023-05-16T17:51:48;6.72;;;1.30;;
71896;SDS011;59767;51.344;12.362;2023-05-16T17:54:53;6.55;;;1.63;;
71896;SDS011;59767;51.344;12.362;2023-05-16T17:57:57;8.93;;;1.25;;
71896;SDS011;59767;51.344;12.362;2023-05-16T18:01:01;8.07;;;1.30;;
71896;SDS011;59767;51.344;12.362;2023-05-16T18:04:08;6.95;;;1.45;;
71896;SDS011;59767;51.344;12.362;2023-05-16T18:07:12;10.18;;;1.50;;
71896;SDS011;59767;51.344;12.362;2023-05-16T18:10:16;10.50;;;1.40;;
71896;SDS011;59767;51.344;12.362;2023-05-16T18:13:21;5.78;;;1.38;;
71896;SDS011;59767;51.344;12.362;2023-05-16T18:16:27;8.18;;;1.35;;
71896;SDS011;59767;51.344;12.362;2023-05-16T18:19:33;10.38;;;1.38;;
71896;SDS011;59767;51.344;12.362;2023-05-16T18:22:37;7.90;;;1.20;;
71896;SDS011;59767;51.344;12.362;2023-05-16T18:25:41;8.55;;;1.75;;